createdAt,value
2018-06-28T00:02:27.807Z,6.47
2018-06-28T00:04:56.824Z,6.50
2018-06-28T00:07:25.803Z,6.50
2018-06-28T00:09:54.792Z,6.20
2018-06-28T00:12:23.882Z,6.70
2018-06-28T00:14:52.870Z,6.60
2018-06-28T00:17:21.890Z,6.50
2018-06-28T00:19:50.872Z,7.00
2018-06-28T00:22:19.964Z,7.17
2018-06-28T00:24:48.954Z,7.73
2018-06-28T00:27:18.043Z,6.37
2018-06-28T00:29:47.018Z,6.30
2018-06-28T00:32:15.998Z,7.07
2018-06-28T00:34:44.995Z,6.80
2018-06-28T00:37:13.974Z,6.87
2018-06-28T00:39:42.961Z,6.07
2018-06-28T00:42:11.946Z,6.70
2018-06-28T00:44:40.942Z,6.10
2018-06-28T00:47:09.926Z,6.80
2018-06-28T00:49:39.030Z,7.20
2018-06-28T00:52:08.254Z,6.63
2018-06-28T00:54:37.233Z,6.57
2018-06-28T00:57:06.226Z,7.00
2018-06-28T00:59:35.202Z,7.10
2018-06-28T01:02:04.254Z,6.87
2018-06-28T01:04:33.249Z,7.00
2018-06-28T01:07:02.262Z,7.03
2018-06-28T01:09:31.255Z,7.50
2018-06-28T01:12:00.262Z,7.47
2018-06-28T01:14:29.280Z,6.90
2018-06-28T01:16:58.283Z,8.00
2018-06-28T01:19:27.391Z,7.83
2018-06-28T01:21:56.478Z,7.30
2018-06-28T01:24:25.482Z,7.53
2018-06-28T01:26:54.478Z,8.80
2018-06-28T01:29:23.484Z,7.63
2018-06-28T01:31:52.526Z,7.20
2018-06-28T01:34:21.627Z,7.47
2018-06-28T01:36:50.732Z,6.30
2018-06-28T01:39:19.710Z,6.80
2018-06-28T01:42:05.613Z,7.80
2018-06-28T01:44:34.593Z,7.70
2018-06-28T01:47:03.590Z,7.30
2018-06-28T01:49:32.570Z,7.20
2018-06-28T01:52:01.546Z,6.97
2018-06-28T01:54:30.550Z,7.47
2018-06-28T01:56:59.543Z,8.63
2018-06-28T01:59:28.545Z,7.80
2018-06-28T02:01:57.546Z,7.70
2018-06-28T02:04:26.530Z,7.20
2018-06-28T02:06:55.562Z,6.03
2018-06-28T02:09:24.562Z,6.80
2018-06-28T02:11:53.542Z,6.70
2018-06-28T02:14:22.521Z,7.00
2018-06-28T02:16:51.544Z,6.93
2018-06-28T02:19:20.525Z,6.63
2018-06-28T02:21:49.606Z,6.30
2018-06-28T02:24:18.686Z,6.70
2018-06-28T02:26:47.794Z,6.13
2018-06-28T02:29:16.874Z,6.63
2018-06-28T02:31:45.979Z,6.60
2018-06-28T02:34:14.964Z,6.60
2018-06-28T02:36:43.934Z,7.20
2018-06-28T02:39:13.022Z,5.93
2018-06-28T02:41:42.020Z,7.03
2018-06-28T02:44:11.006Z,7.43
2018-06-28T02:46:39.982Z,8.03
2018-06-28T02:49:08.988Z,7.17
2018-06-28T02:51:37.961Z,7.60
2018-06-28T02:54:07.057Z,7.73
2018-06-28T02:56:36.179Z,7.80
2018-06-28T02:59:05.187Z,7.10
2018-06-28T03:01:34.170Z,6.30
2018-06-28T03:04:03.156Z,7.40
2018-06-28T03:06:32.146Z,6.90
2018-06-28T03:09:01.166Z,6.93
2018-06-28T03:11:30.182Z,6.93
2018-06-28T03:13:59.164Z,7.57
2018-06-28T03:16:28.165Z,7.20
2018-06-28T03:18:57.219Z,7.87
2018-06-28T03:21:26.243Z,8.10
2018-06-28T03:23:55.263Z,8.63
2018-06-28T03:26:24.259Z,8.17
2018-06-28T03:28:53.262Z,9.00
2018-06-28T03:31:22.426Z,8.90
2018-06-28T03:33:51.420Z,7.40
2018-06-28T03:36:20.447Z,9.20
2018-06-28T03:38:49.461Z,8.57
2018-06-28T03:41:18.578Z,8.70
2018-06-28T03:43:47.623Z,6.87
2018-06-28T03:46:16.625Z,9.80
2018-06-28T03:48:45.639Z,8.30
2018-06-28T03:51:14.627Z,8.00
2018-06-28T03:53:43.625Z,9.17
2018-06-28T03:56:12.607Z,8.13
2018-06-28T03:58:41.702Z,8.80
2018-06-28T04:01:10.694Z,8.93
2018-06-28T04:03:39.706Z,8.97
2018-06-28T04:06:08.797Z,9.33
2018-06-28T04:08:37.881Z,8.80
2018-06-28T04:11:07.025Z,10.70
2018-06-28T04:13:36.146Z,8.80
2018-06-28T04:16:05.290Z,7.97
2018-06-28T04:18:34.285Z,9.30
2018-06-28T04:21:03.414Z,9.90
2018-06-28T04:23:32.442Z,9.50
2018-06-28T04:26:01.422Z,9.30
2018-06-28T04:28:30.409Z,8.83
2018-06-28T04:30:59.446Z,10.10
2018-06-28T04:33:28.569Z,8.60
2018-06-28T04:35:57.557Z,9.57
2018-06-28T04:38:26.538Z,9.20
2018-06-28T04:40:55.513Z,10.27
2018-06-28T04:43:24.498Z,10.70
2018-06-28T04:45:53.534Z,9.87
2018-06-28T04:48:22.534Z,9.43
2018-06-28T04:50:51.521Z,9.80
2018-06-28T04:53:20.699Z,9.80
2018-06-28T04:55:49.674Z,10.60
2018-06-28T04:58:18.774Z,10.53
2018-06-28T05:00:47.771Z,9.57
2018-06-28T05:03:16.897Z,12.10
2018-06-28T05:05:45.992Z,11.63
2018-06-28T05:08:14.986Z,10.17
2018-06-28T05:10:44.073Z,11.60
2018-06-28T05:13:13.170Z,12.37
2018-06-28T05:15:42.165Z,11.67
2018-06-28T05:18:11.139Z,11.70
2018-06-28T05:20:40.150Z,11.90
2018-06-28T05:23:09.146Z,12.03
2018-06-28T05:25:38.135Z,11.00
2018-06-28T05:28:07.230Z,12.93
2018-06-28T05:30:36.312Z,10.57
2018-06-28T05:33:05.326Z,11.27
2018-06-28T05:35:34.334Z,12.90
2018-06-28T05:38:03.323Z,12.10
2018-06-28T05:40:32.306Z,12.17
2018-06-28T05:43:01.294Z,12.10
2018-06-28T05:45:30.414Z,11.87
2018-06-28T05:47:59.394Z,12.60
2018-06-28T05:50:28.398Z,12.67
2018-06-28T05:52:57.485Z,13.07
2018-06-28T05:55:26.591Z,13.30
2018-06-28T05:57:55.679Z,12.53
2018-06-28T06:00:24.798Z,12.37
2018-06-28T06:02:53.786Z,13.30
2018-06-28T06:05:22.786Z,11.53
2018-06-28T06:07:51.777Z,13.03
2018-06-28T06:10:20.794Z,12.87
2018-06-28T06:12:49.731Z,13.37
2018-06-28T06:15:18.741Z,12.73
2018-06-28T06:17:47.750Z,13.40
2018-06-28T06:20:16.816Z,13.17
2018-06-28T06:22:45.741Z,13.43
2018-06-28T06:25:14.845Z,13.67
2018-06-28T06:27:43.818Z,14.13
2018-06-28T06:30:12.839Z,13.60
2018-06-28T06:32:41.833Z,14.77
2018-06-28T06:35:10.818Z,14.27
2018-06-28T06:37:39.802Z,13.50
2018-06-28T06:40:08.822Z,15.07
2018-06-28T06:42:37.912Z,13.87
2018-06-28T06:45:07.469Z,14.97
2018-06-28T06:47:36.454Z,15.80
2018-06-28T06:50:05.634Z,16.67
2018-06-28T06:52:34.739Z,15.20
2018-06-28T06:55:03.794Z,16.70
2018-06-28T06:57:32.939Z,17.23
2018-06-28T07:00:01.901Z,17.97
2018-06-28T07:02:30.890Z,17.47
2018-06-28T07:04:59.882Z,18.13
2018-06-28T07:07:28.738Z,16.10
2018-06-28T07:09:57.846Z,17.23
2018-06-28T07:12:26.952Z,18.23
2018-06-28T07:14:55.952Z,17.57
2018-06-28T07:17:24.939Z,18.50
2018-06-28T07:19:53.952Z,17.77
2018-06-28T07:22:22.931Z,17.97
2018-06-28T07:24:51.939Z,17.80
2018-06-28T07:27:20.965Z,19.83
2018-06-28T07:29:49.985Z,18.70
2018-06-28T07:32:19.007Z,18.87
2018-06-28T07:34:48.014Z,18.20
2018-06-28T07:37:17.110Z,17.87
2018-06-28T07:39:46.300Z,17.90
2018-06-28T07:42:15.118Z,18.20
2018-06-28T07:44:44.125Z,16.10
2018-06-28T07:47:13.116Z,17.00
2018-06-28T07:49:42.119Z,17.40
2018-06-28T07:52:11.090Z,15.70
2018-06-28T07:54:40.104Z,19.43
2018-06-28T07:57:09.237Z,19.03
2018-06-28T07:59:38.239Z,18.80
2018-06-28T08:02:07.251Z,19.00
2018-06-28T08:04:36.258Z,18.10
2018-06-28T08:07:05.269Z,17.10
2018-06-28T08:09:34.263Z,16.90
2018-06-28T08:12:03.418Z,16.70
2018-06-28T08:14:32.402Z,14.70
2018-06-28T08:17:01.393Z,16.70
2018-06-28T08:19:30.525Z,16.17
2018-06-28T08:21:59.610Z,16.73
2018-06-28T08:24:28.618Z,16.20
2018-06-28T08:26:57.655Z,15.53
2018-06-28T08:29:26.746Z,16.70
2018-06-28T08:31:55.752Z,15.13
2018-06-28T08:34:24.753Z,15.93
2018-06-28T08:36:53.743Z,15.53
2018-06-28T08:39:22.846Z,15.47
2018-06-28T08:41:51.842Z,16.33
2018-06-28T08:44:20.856Z,15.23
2018-06-28T08:46:49.916Z,15.73
2018-06-28T08:49:18.889Z,17.40
2018-06-28T08:51:47.891Z,18.67
2018-06-28T08:54:16.886Z,17.97
2018-06-28T08:56:45.894Z,17.50
2018-06-28T08:59:14.882Z,18.07
2018-06-28T09:01:43.887Z,16.97
2018-06-28T09:04:12.874Z,19.40
2018-06-28T09:06:41.879Z,18.77
2018-06-28T09:09:12.238Z,16.17
2018-06-28T09:11:41.944Z,18.97
2018-06-28T09:14:11.298Z,20.40
2018-06-28T09:16:40.297Z,19.53
2018-06-28T09:19:09.288Z,20.30
2018-06-28T09:21:38.319Z,19.80
2018-06-28T09:24:07.318Z,26.40
2018-06-28T09:26:36.310Z,23.13
2018-06-28T09:29:05.318Z,22.97
2018-06-28T09:31:34.486Z,21.20
2018-06-28T09:34:03.478Z,20.83
2018-06-28T09:36:33.122Z,21.00
2018-06-28T09:39:02.143Z,21.37
2018-06-28T09:41:31.134Z,21.00
2018-06-28T09:44:00.120Z,22.60
2018-06-28T09:46:29.135Z,21.37
2018-06-28T09:48:58.223Z,22.20
2018-06-28T09:51:27.209Z,23.40
2018-06-28T09:53:56.227Z,22.97
2018-06-28T09:56:25.232Z,22.10
2018-06-28T09:58:54.485Z,22.17
2018-06-28T10:01:23.483Z,23.50
2018-06-28T10:03:52.486Z,22.43
2018-06-28T10:06:21.510Z,22.60
2018-06-28T10:08:50.494Z,26.53
2018-06-28T10:11:19.511Z,23.63
2018-06-28T10:13:48.502Z,22.90
2018-06-28T10:16:17.606Z,23.70
2018-06-28T10:18:46.747Z,22.53
2018-06-28T10:21:15.852Z,23.07
2018-06-28T10:23:44.982Z,23.90
2018-06-28T10:26:14.007Z,25.80
2018-06-28T10:28:42.999Z,25.30
2018-06-28T10:31:12.002Z,23.50
2018-06-28T10:33:40.990Z,23.53
2018-06-28T10:36:09.998Z,24.33
2018-06-28T10:38:38.995Z,23.83
2018-06-28T10:41:07.762Z,25.50
2018-06-28T10:43:36.830Z,22.90
2018-06-28T10:46:05.907Z,22.70
2018-06-28T10:48:34.890Z,25.83
2018-06-28T10:51:03.993Z,21.27
2018-06-28T10:53:32.978Z,23.27
2018-06-28T10:56:01.999Z,22.63
2018-06-28T10:58:31.026Z,23.37
2018-06-28T11:01:00.073Z,22.97
2018-06-28T11:03:29.046Z,23.20
2018-06-28T11:05:58.134Z,25.10
2018-06-28T11:08:27.252Z,22.47
2018-06-28T11:10:56.230Z,22.60
2018-06-28T11:13:25.245Z,23.17
2018-06-28T11:15:54.231Z,24.40
2018-06-28T11:18:23.223Z,24.00
2018-06-28T11:20:52.205Z,20.13
2018-06-28T11:23:21.189Z,20.10
2018-06-28T11:25:50.330Z,21.20
2018-06-28T11:28:19.493Z,21.07
2018-06-28T11:30:48.630Z,24.87
2018-06-28T11:33:17.637Z,20.67
2018-06-28T11:35:46.725Z,23.67
2018-06-28T11:38:15.713Z,25.87
2018-06-28T11:40:44.706Z,24.67
2018-06-28T11:43:13.715Z,27.23
2018-06-28T11:45:42.824Z,25.10
2018-06-28T11:48:11.805Z,25.93
2018-06-28T11:50:40.817Z,24.90
2018-06-28T11:53:09.802Z,28.40
2018-06-28T11:55:38.802Z,26.50
2018-06-28T11:58:07.803Z,27.87
2018-06-28T12:00:36.786Z,29.03
2018-06-28T12:03:06.157Z,29.37
2018-06-28T12:05:35.214Z,26.20
2018-06-28T12:08:04.242Z,27.17
2018-06-28T12:10:33.343Z,29.80
2018-06-28T12:13:02.426Z,28.67
2018-06-28T12:15:31.415Z,28.90
2018-06-28T12:18:00.458Z,27.67
2018-06-28T12:20:29.762Z,29.07
2018-06-28T12:22:58.887Z,28.43
2018-06-28T12:25:27.889Z,27.43
2018-06-28T12:27:56.891Z,28.43
2018-06-28T12:30:25.885Z,29.00
2018-06-28T12:32:54.891Z,38.73
2018-06-28T12:35:23.883Z,35.77
2018-06-28T12:37:52.898Z,27.97
2018-06-28T12:40:21.900Z,28.80
2018-06-28T12:42:50.990Z,28.53
2018-06-28T12:45:19.986Z,28.27
2018-06-28T12:48:03.615Z,29.43
2018-06-28T12:50:32.656Z,29.90
2018-06-28T12:53:03.819Z,30.93
2018-06-28T12:56:39.642Z,32.90
2018-06-28T12:59:12.853Z,32.77
2018-06-28T13:01:41.950Z,32.63
2018-06-28T13:04:11.055Z,35.77
2018-06-28T13:06:40.148Z,35.60
2018-06-28T13:09:14.165Z,36.07
2018-06-28T13:11:43.199Z,36.37
2018-06-28T13:14:12.280Z,35.00
2018-06-28T13:16:41.271Z,35.80
2018-06-28T13:19:10.261Z,34.63
2018-06-28T13:21:39.255Z,35.10
2018-06-28T13:24:08.251Z,35.27
2018-06-28T13:26:37.271Z,36.07
2018-06-28T13:29:06.282Z,36.30
2018-06-28T13:31:35.377Z,34.37
2018-06-28T13:34:04.382Z,37.20
2018-06-28T13:36:33.393Z,35.80
2018-06-28T13:39:02.437Z,39.37
2018-06-28T13:41:31.668Z,42.17
2018-06-28T13:44:00.385Z,38.97
2018-06-28T13:46:29.594Z,35.37
2018-06-28T13:48:58.577Z,37.90
2018-06-28T13:51:27.566Z,34.97
2018-06-28T13:54:02.888Z,35.13
2018-06-28T13:56:31.974Z,35.20
2018-06-28T13:59:01.070Z,32.43
2018-06-28T14:01:30.073Z,35.53
2018-06-28T14:03:59.078Z,37.53
2018-06-28T14:06:28.077Z,36.00
2018-06-28T14:08:57.065Z,37.27
2018-06-28T14:11:26.085Z,37.87
2018-06-28T14:13:55.093Z,37.53
2018-06-28T14:16:24.118Z,35.30
2018-06-28T14:18:53.130Z,35.13
2018-06-28T14:21:22.127Z,37.70
2018-06-28T14:23:51.126Z,34.53
2018-06-28T14:26:20.110Z,33.17
2018-06-28T14:28:49.138Z,35.60
2018-06-28T14:31:18.209Z,30.17
2018-06-28T14:33:47.199Z,32.87
2018-06-28T14:36:16.286Z,30.13
2018-06-28T14:38:45.294Z,33.30
2018-06-28T14:41:14.300Z,31.73
2018-06-28T14:43:43.359Z,31.67
2018-06-28T14:46:12.382Z,27.50
2018-06-28T14:48:41.446Z,31.97
2018-06-28T14:51:10.446Z,32.47
2018-06-28T14:53:39.453Z,31.80
2018-06-28T14:56:08.464Z,34.80
2018-06-28T14:58:37.525Z,31.63
2018-06-28T15:01:06.637Z,31.37
2018-06-28T15:03:35.652Z,28.40
2018-06-28T15:06:04.663Z,22.20
2018-06-28T15:08:33.690Z,21.17
2018-06-28T15:11:02.710Z,22.10
2018-06-28T15:13:31.718Z,20.50
2018-06-28T15:16:00.740Z,20.43
2018-06-28T15:18:29.765Z,20.27
2018-06-28T15:20:58.829Z,21.60
2018-06-28T15:23:27.872Z,22.33
2018-06-28T15:25:56.895Z,21.77
2018-06-28T15:28:26.684Z,21.63
2018-06-28T15:30:55.750Z,21.03
2018-06-28T15:33:24.842Z,22.40
2018-06-28T15:35:53.796Z,20.73
2018-06-28T15:38:22.834Z,20.53
2018-06-28T15:40:51.930Z,20.07
2018-06-28T15:43:20.955Z,20.73
2018-06-28T15:45:50.130Z,19.70
2018-06-28T15:48:19.046Z,20.20
2018-06-28T15:50:48.054Z,20.73
2018-06-28T15:53:17.144Z,21.37
2018-06-28T15:55:46.135Z,20.87
2018-06-28T15:58:15.150Z,20.00
2018-06-28T16:00:44.162Z,17.53
2018-06-28T16:03:13.176Z,19.13
2018-06-28T16:05:42.246Z,19.90
2018-06-28T16:08:11.369Z,17.20
2018-06-28T16:10:40.434Z,19.67
2018-06-28T16:13:09.504Z,20.10
2018-06-28T16:15:38.538Z,21.77
2018-06-28T16:18:07.629Z,19.33
2018-06-28T16:20:36.622Z,17.97
2018-06-28T16:23:05.623Z,17.33
2018-06-28T16:25:34.650Z,17.20
2018-06-28T16:28:03.668Z,18.60
2018-06-28T16:30:32.433Z,19.03
2018-06-28T16:33:01.441Z,16.40
2018-06-28T16:35:30.430Z,18.10
2018-06-28T16:37:59.456Z,17.23
2018-06-28T16:40:28.437Z,18.30
2018-06-28T16:42:57.458Z,18.90
2018-06-28T16:45:26.454Z,19.43
2018-06-28T16:47:55.444Z,19.00
2018-06-28T16:50:24.464Z,17.10
2018-06-28T16:52:53.565Z,17.47
2018-06-28T16:55:22.561Z,19.20
2018-06-28T16:57:53.086Z,19.83
2018-06-28T17:00:22.057Z,17.83
2018-06-28T17:02:51.082Z,18.10
2018-06-28T17:05:20.098Z,21.00
2018-06-28T17:07:49.201Z,20.00
2018-06-28T17:10:18.105Z,20.90
2018-06-28T17:12:47.097Z,21.03
2018-06-28T17:15:16.098Z,20.37
2018-06-28T17:17:45.173Z,19.40
2018-06-28T17:20:14.250Z,20.83
2018-06-28T17:22:43.313Z,20.70
2018-06-28T17:25:12.499Z,22.60
2018-06-28T17:27:41.517Z,21.83
2018-06-28T17:30:10.562Z,21.60
2018-06-28T17:32:39.555Z,20.73
2018-06-28T17:35:08.586Z,21.50
2018-06-28T17:37:37.596Z,19.97
2018-06-28T17:40:07.078Z,20.93
2018-06-28T17:42:36.173Z,20.87
2018-06-28T17:45:05.234Z,45.97
2018-06-28T17:47:34.278Z,21.23
2018-06-28T17:50:03.270Z,18.70
2018-06-28T17:52:32.357Z,20.67
2018-06-28T17:55:01.459Z,19.60
2018-06-28T17:57:30.582Z,18.60
2018-06-28T18:00:00.597Z,18.40
2018-06-28T18:02:29.622Z,20.20
2018-06-28T18:04:58.672Z,20.83
2018-06-28T18:07:27.607Z,18.77
2018-06-28T18:09:56.838Z,18.70
2018-06-28T18:12:25.866Z,19.20
2018-06-28T18:14:54.890Z,18.00
2018-06-28T18:17:23.886Z,19.13
2018-06-28T18:19:52.859Z,17.53
2018-06-28T18:22:21.872Z,18.50
2018-06-28T18:24:51.007Z,18.00
2018-06-28T18:27:20.018Z,18.60
2018-06-28T18:29:49.094Z,18.53
2018-06-28T18:32:18.103Z,18.80
2018-06-28T18:34:47.096Z,16.77
2018-06-28T18:37:16.085Z,18.50
2018-06-28T18:39:45.074Z,16.83
2018-06-28T18:42:14.182Z,16.63
2018-06-28T18:44:43.483Z,17.37
2018-06-28T18:47:12.486Z,18.00
2018-06-28T18:49:41.502Z,18.70
2018-06-28T18:52:10.640Z,15.90
2018-06-28T18:54:39.737Z,18.43
2018-06-28T18:57:08.730Z,17.07
2018-06-28T18:59:37.741Z,16.97
2018-06-28T19:02:07.664Z,15.57
2018-06-28T19:04:36.646Z,17.73
2018-06-28T19:07:06.069Z,16.83
2018-06-28T19:09:40.278Z,16.80
2018-06-28T19:12:09.327Z,17.40
2018-06-28T19:14:43.556Z,17.00
2018-06-28T19:17:12.652Z,18.23
2018-06-28T19:19:41.734Z,17.17
2018-06-28T19:22:16.030Z,19.20
2018-06-28T19:24:45.147Z,18.77
2018-06-28T19:27:14.202Z,19.90
2018-06-28T19:29:48.511Z,19.27
2018-06-28T19:32:22.765Z,19.47
2018-06-28T19:34:51.847Z,19.20
2018-06-28T19:37:26.122Z,20.67
2018-06-28T19:40:00.465Z,18.77
2018-06-28T19:42:34.806Z,18.47
2018-06-28T19:45:03.818Z,21.00
2018-06-28T19:47:32.822Z,19.53
2018-06-28T19:50:07.274Z,18.03
2018-06-28T19:52:41.490Z,18.40
2018-06-28T19:55:10.505Z,17.80
2018-06-28T19:57:39.518Z,18.80
2018-06-28T20:00:08.680Z,19.87
2018-06-28T20:02:43.029Z,19.40
2018-06-28T20:05:12.014Z,19.23
2018-06-28T20:07:41.004Z,18.40
2018-06-28T20:10:10.087Z,18.43
2018-06-28T20:12:44.266Z,19.07
2018-06-28T20:17:24.944Z,18.60
2018-06-28T20:19:59.265Z,20.50
2018-06-28T20:22:28.365Z,19.13
2018-06-28T20:24:57.457Z,20.80
2018-06-28T20:27:31.886Z,18.70
2018-06-28T20:30:06.104Z,22.50
2018-06-28T20:32:40.349Z,21.00
2018-06-28T20:35:09.362Z,21.73
2018-06-28T20:37:38.392Z,21.90
2018-06-28T20:40:07.762Z,22.93
2018-06-28T20:42:43.966Z,20.17
2018-06-28T20:45:12.834Z,22.20
2018-06-28T20:47:41.776Z,22.90
2018-06-28T20:50:10.758Z,22.80
2018-06-28T20:52:39.757Z,20.70
2018-06-28T20:55:08.747Z,23.20
2018-06-28T20:57:37.766Z,20.50
2018-06-28T21:00:08.537Z,22.87
2018-06-28T21:02:37.807Z,22.67
2018-06-28T21:05:06.830Z,22.23
2018-06-28T21:07:35.848Z,23.40
2018-06-28T21:10:04.847Z,25.17
2018-06-28T21:12:35.254Z,27.70
2018-06-28T21:15:04.387Z,25.43
2018-06-28T21:17:34.602Z,23.43
2018-06-28T21:20:03.646Z,27.10
2018-06-28T21:22:32.756Z,25.90
2018-06-28T21:25:01.870Z,26.00
2018-06-28T21:27:30.878Z,25.47
2018-06-28T21:29:59.885Z,24.73
2018-06-28T21:32:28.973Z,28.03
2018-06-28T21:34:58.087Z,26.90
2018-06-28T21:37:27.106Z,24.53
2018-06-28T21:39:56.326Z,25.10
2018-06-28T21:42:25.335Z,26.17
2018-06-28T21:44:54.350Z,27.63
2018-06-28T21:47:23.509Z,27.50
2018-06-28T21:49:56.948Z,23.90
2018-06-28T21:52:25.918Z,26.40
2018-06-28T21:54:54.930Z,24.50
2018-06-28T21:57:23.931Z,25.40
2018-06-28T21:59:52.918Z,24.63
2018-06-28T22:02:21.942Z,25.13
2018-06-28T22:04:51.102Z,25.13
2018-06-28T22:07:20.196Z,27.30
2018-06-28T22:09:49.195Z,25.97
2018-06-28T22:12:18.179Z,28.40
2018-06-28T22:14:47.182Z,29.63
2018-06-28T22:17:16.198Z,28.50
2018-06-28T22:19:45.199Z,30.20
2018-06-28T22:22:14.185Z,29.07
2018-06-28T22:24:43.182Z,27.03
2018-06-28T22:27:12.192Z,28.80
2018-06-28T22:29:41.183Z,28.63
2018-06-28T22:32:10.218Z,27.60
2018-06-28T22:34:39.246Z,25.87
2018-06-28T22:37:08.230Z,29.63
2018-06-28T22:39:37.239Z,28.30
2018-06-28T22:42:06.294Z,27.87
2018-06-28T22:44:35.261Z,27.03
2018-06-28T22:47:04.256Z,27.20
2018-06-28T22:49:33.257Z,28.10
2018-06-28T22:52:02.282Z,26.87
2018-06-28T22:54:31.273Z,27.17
2018-06-28T22:57:00.153Z,29.20
2018-06-28T22:59:29.222Z,27.60
2018-06-28T23:01:58.214Z,27.20
2018-06-28T23:04:27.206Z,29.20
2018-06-28T23:06:56.231Z,30.20
2018-06-28T23:09:25.280Z,31.20
2018-06-28T23:11:54.222Z,27.43
2018-06-28T23:14:23.232Z,31.00
2018-06-28T23:16:52.223Z,30.13
2018-06-28T23:19:21.319Z,31.93
2018-06-28T23:21:50.330Z,32.10
2018-06-28T23:24:19.326Z,29.47
2018-06-28T23:26:48.339Z,32.20
2018-06-28T23:29:17.422Z,33.20
2018-06-28T23:31:46.446Z,31.67
2018-06-28T23:34:15.562Z,31.53
2018-06-28T23:36:44.570Z,32.07
2018-06-28T23:39:13.553Z,30.90
2018-06-28T23:41:42.574Z,32.00
2018-06-28T23:44:11.562Z,30.77
2018-06-28T23:46:40.578Z,30.70
2018-06-28T23:49:09.581Z,31.73
2018-06-28T23:51:38.615Z,32.67
2018-06-28T23:54:07.766Z,31.37
2018-06-28T23:56:36.758Z,33.20
2018-06-28T23:59:05.778Z,32.33
